UAL697 KIAH-KSAT
Flight info
| Callsign | UAL697 |
|---|---|
| Flight time | 0h 38m |
| Altitude | 28000 |
| Route | PITZZ5 WAILN QERVO3 |
| Aircraft | A320/M-SDE3FGHIRWY/LB1 |
Departure
| Time | 2026-04-24 21:17 |
|---|---|
| Airport | George Bush Intercontinental Airport (KIAH) |
Arrival
| Time | 2026-04-24 21:56 |
|---|---|
| Airport | San Antonio International Airport (KSAT) |
| Time | Latitude | Longitude | Altitude | Speed | Heading |
|---|---|---|---|---|---|
| 2026-04-24 20:37 | 29.98407 | -95.33803 | 107 ft | 0 kts | 324° |
| 2026-04-24 20:48 | 29.98406 | -95.33803 | 107 ft | 0 kts | 324° |
| 2026-04-24 21:00 | 29.98393 | -95.33792 | 113 ft | 4 kts | 327° |
| 2026-04-24 21:00 | 29.98370 | -95.33776 | 104 ft | 7 kts | 332° |
| 2026-04-24 21:01 | 29.98346 | -95.33762 | 107 ft | 7 kts | 333° |
| 2026-04-24 21:01 | 29.98323 | -95.33747 | 106 ft | 7 kts | 308° |
| 2026-04-24 21:01 | 29.98317 | -95.33732 | 107 ft | 5 kts | 270° |
| 2026-04-24 21:01 | 29.98317 | -95.33729 | 106 ft | 25 kts | 270° |
| 2026-04-24 21:06 | 29.98317 | -95.33731 | 107 ft | 1 kts | 270° |
| 2026-04-24 21:06 | 29.98317 | -95.33751 | 107 ft | 4 kts | 270° |
| 2026-04-24 21:07 | 29.98317 | -95.33794 | 107 ft | 7 kts | 270° |
| 2026-04-24 21:07 | 29.98317 | -95.33859 | 107 ft | 9 kts | 270° |
| 2026-04-24 21:07 | 29.98317 | -95.33944 | 107 ft | 12 kts | 271° |
| 2026-04-24 21:07 | 29.98345 | -95.34044 | 107 ft | 15 kts | 302° |
| 2026-04-24 21:08 | 29.98377 | -95.34162 | 107 ft | 17 kts | 270° |
| 2026-04-24 21:08 | 29.98376 | -95.34301 | 107 ft | 17 kts | 269° |
| 2026-04-24 21:08 | 29.98369 | -95.34419 | 105 ft | 13 kts | 249° |
| 2026-04-24 21:08 | 29.98326 | -95.34524 | 105 ft | 16 kts | 258° |
| 2026-04-24 21:09 | 29.98324 | -95.34605 | 107 ft | 7 kts | 270° |
| 2026-04-24 21:09 | 29.98325 | -95.34671 | 107 ft | 10 kts | 270° |
| 2026-04-24 21:09 | 29.98325 | -95.34759 | 107 ft | 12 kts | 270° |
| 2026-04-24 21:09 | 29.98324 | -95.34868 | 107 ft | 15 kts | 269° |
| 2026-04-24 21:10 | 29.98324 | -95.34999 | 107 ft | 17 kts | 270° |
| 2026-04-24 21:10 | 29.98324 | -95.35071 | 107 ft | 8 kts | 270° |
| 2026-04-24 21:10 | 29.98325 | -95.35147 | 107 ft | 11 kts | 281° |
| 2026-04-24 21:10 | 29.98388 | -95.35205 | 107 ft | 13 kts | 331° |
| 2026-04-24 21:11 | 29.98475 | -95.35259 | 107 ft | 16 kts | 332° |
| 2026-04-24 21:11 | 29.98578 | -95.35322 | 107 ft | 18 kts | 332° |
| 2026-04-24 21:11 | 29.98696 | -95.35394 | 107 ft | 20 kts | 331° |
| 2026-04-24 21:11 | 29.98829 | -95.35476 | 107 ft | 22 kts | 332° |
| 2026-04-24 21:12 | 29.98941 | -95.35545 | 107 ft | 14 kts | 332° |
| 2026-04-24 21:12 | 29.99000 | -95.35581 | 107 ft | 15 kts | 332° |
| 2026-04-24 21:12 | 29.99092 | -95.35693 | 107 ft | 17 kts | 274° |
| 2026-04-24 21:12 | 29.99099 | -95.35829 | 107 ft | 16 kts | 270° |
| 2026-04-24 21:13 | 29.99074 | -95.35965 | 106 ft | 19 kts | 245° |
| 2026-04-24 21:13 | 29.99008 | -95.36038 | 107 ft | 13 kts | 175° |
| 2026-04-24 21:13 | 29.98917 | -95.35989 | 107 ft | 14 kts | 151° |
| 2026-04-24 21:13 | 29.98845 | -95.35983 | 108 ft | 10 kts | 221° |
| 2026-04-24 21:14 | 29.98819 | -95.36033 | 108 ft | 2 kts | 243° |
| 2026-04-24 21:14 | 29.98818 | -95.36034 | 108 ft | 0 kts | 243° |
| 2026-04-24 21:15 | 29.98817 | -95.36037 | 108 ft | 2 kts | 243° |
| 2026-04-24 21:15 | 29.98808 | -95.36058 | 108 ft | 4 kts | 243° |
| 2026-04-24 21:15 | 29.98790 | -95.36095 | 108 ft | 7 kts | 239° |
| 2026-04-24 21:16 | 29.98754 | -95.36107 | 108 ft | 7 kts | 187° |
| 2026-04-24 21:16 | 29.98709 | -95.36097 | 108 ft | 0 kts | 154° |
| 2026-04-24 21:16 | 29.98691 | -95.36086 | 108 ft | 23 kts | 153° |
| 2026-04-24 21:16 | 29.98315 | -95.35861 | 107 ft | 95 kts | 153° |
| 2026-04-24 21:17 | 29.97557 | -95.35398 | 109 ft | 148 kts | 153° |
| 2026-04-24 21:17 | 29.96603 | -95.34814 | 587 ft | 157 kts | 153° |
| 2026-04-24 21:17 | 29.95593 | -95.34410 | 1309 ft | 154 kts | 188° |
| 2026-04-24 21:17 | 29.94943 | -95.34697 | 1755 ft | 154 kts | 219° |
| 2026-04-24 21:18 | 29.93939 | -95.35960 | 2329 ft | 172 kts | 229° |
| 2026-04-24 21:18 | 29.93099 | -95.37074 | 2630 ft | 196 kts | 227° |
| 2026-04-24 21:18 | 29.92138 | -95.38336 | 3017 ft | 222 kts | 228° |
| 2026-04-24 21:18 | 29.91063 | -95.39740 | 3483 ft | 244 kts | 227° |
| 2026-04-24 21:19 | 29.89911 | -95.41234 | 4255 ft | 253 kts | 228° |
| 2026-04-24 21:19 | 29.88722 | -95.42787 | 4811 ft | 261 kts | 232° |
| 2026-04-24 21:19 | 29.87702 | -95.44558 | 5365 ft | 268 kts | 238° |
| 2026-04-24 21:19 | 29.86763 | -95.46400 | 6454 ft | 267 kts | 240° |
| 2026-04-24 21:20 | 29.84911 | -95.50155 | 8392 ft | 273 kts | 241° |
| 2026-04-24 21:20 | 29.83984 | -95.52081 | 9315 ft | 276 kts | 242° |
| 2026-04-24 21:20 | 29.83054 | -95.54030 | 10159 ft | 280 kts | 243° |
| 2026-04-24 21:21 | 29.82230 | -95.56141 | 10503 ft | 300 kts | 252° |
| 2026-04-24 21:21 | 29.81723 | -95.58566 | 10704 ft | 323 kts | 259° |
| 2026-04-24 21:21 | 29.81296 | -95.61168 | 11130 ft | 336 kts | 259° |
| 2026-04-24 21:21 | 29.80851 | -95.63825 | 11811 ft | 340 kts | 259° |
| 2026-04-24 21:22 | 29.80392 | -95.66509 | 12537 ft | 343 kts | 259° |
| 2026-04-24 21:22 | 29.79928 | -95.69214 | 13289 ft | 346 kts | 259° |
| 2026-04-24 21:22 | 29.79460 | -95.71941 | 13997 ft | 349 kts | 259° |
| 2026-04-24 21:22 | 29.79150 | -95.73754 | 14437 ft | 350 kts | 259° |
| 2026-04-24 21:23 | 29.78514 | -95.77459 | 15333 ft | 354 kts | 260° |
| 2026-04-24 21:23 | 29.78040 | -95.80207 | 15983 ft | 356 kts | 260° |
| 2026-04-24 21:23 | 29.77560 | -95.83010 | 16661 ft | 359 kts | 260° |
| 2026-04-24 21:23 | 29.77075 | -95.85834 | 17360 ft | 361 kts | 261° |
| 2026-04-24 21:24 | 29.76790 | -95.88708 | 18054 ft | 362 kts | 270° |
| 2026-04-24 21:24 | 29.76882 | -95.91610 | 18685 ft | 364 kts | 273° |
| 2026-04-24 21:24 | 29.77004 | -95.94529 | 19353 ft | 366 kts | 273° |
| 2026-04-24 21:24 | 29.77125 | -95.97462 | 20035 ft | 368 kts | 273° |
| 2026-04-24 21:25 | 29.77244 | -96.00420 | 20681 ft | 370 kts | 273° |
| 2026-04-24 21:25 | 29.77359 | -96.03387 | 21289 ft | 372 kts | 273° |
| 2026-04-24 21:25 | 29.77472 | -96.06373 | 21873 ft | 374 kts | 273° |
| 2026-04-24 21:25 | 29.77585 | -96.09371 | 22443 ft | 376 kts | 273° |
| 2026-04-24 21:26 | 29.77698 | -96.12381 | 22988 ft | 378 kts | 273° |
| 2026-04-24 21:26 | 29.77812 | -96.15407 | 23492 ft | 380 kts | 273° |
| 2026-04-24 21:26 | 29.77927 | -96.18451 | 23942 ft | 381 kts | 274° |
| 2026-04-24 21:26 | 29.78094 | -96.21503 | 24403 ft | 382 kts | 275° |
| 2026-04-24 21:27 | 29.78318 | -96.24558 | 24851 ft | 384 kts | 276° |
| 2026-04-24 21:27 | 29.78573 | -96.27623 | 25290 ft | 385 kts | 276° |
| 2026-04-24 21:27 | 29.78833 | -96.30693 | 25728 ft | 386 kts | 276° |
| 2026-04-24 21:27 | 29.79003 | -96.32733 | 26021 ft | 387 kts | 276° |
| 2026-04-24 21:28 | 29.79335 | -96.36872 | 26604 ft | 389 kts | 276° |
| 2026-04-24 21:28 | 29.79573 | -96.39981 | 27025 ft | 390 kts | 276° |
| 2026-04-24 21:28 | 29.79805 | -96.43099 | 27440 ft | 392 kts | 276° |
| 2026-04-24 21:28 | 29.80035 | -96.46229 | 27695 ft | 393 kts | 275° |
| 2026-04-24 21:29 | 29.80262 | -96.49360 | 27737 ft | 392 kts | 275° |
| 2026-04-24 21:29 | 29.80488 | -96.52485 | 27727 ft | 391 kts | 275° |
| 2026-04-24 21:29 | 29.80713 | -96.55606 | 27720 ft | 391 kts | 275° |
| 2026-04-24 21:29 | 29.80937 | -96.58691 | 27706 ft | 391 kts | 275° |
| 2026-04-24 21:30 | 29.81166 | -96.61806 | 27709 ft | 391 kts | 275° |
| 2026-04-24 21:30 | 29.81396 | -96.64921 | 27697 ft | 391 kts | 275° |
| 2026-04-24 21:30 | 29.81628 | -96.68043 | 27701 ft | 391 kts | 275° |
| 2026-04-24 21:30 | 29.81858 | -96.71158 | 27696 ft | 391 kts | 275° |
| 2026-04-24 21:31 | 29.82088 | -96.74277 | 27702 ft | 391 kts | 275° |
| 2026-04-24 21:31 | 29.82315 | -96.77399 | 27703 ft | 391 kts | 275° |
| 2026-04-24 21:31 | 29.82541 | -96.80515 | 27706 ft | 391 kts | 275° |
| 2026-04-24 21:31 | 29.82764 | -96.83635 | 27707 ft | 390 kts | 275° |
| 2026-04-24 21:32 | 29.82987 | -96.86751 | 27713 ft | 390 kts | 275° |
| 2026-04-24 21:32 | 29.83213 | -96.89867 | 27715 ft | 390 kts | 275° |
| 2026-04-24 21:32 | 29.83438 | -96.92978 | 27724 ft | 390 kts | 275° |
| 2026-04-24 21:32 | 29.83663 | -96.96089 | 27726 ft | 390 kts | 275° |
| 2026-04-24 21:33 | 29.83887 | -96.99202 | 27732 ft | 390 kts | 275° |
| 2026-04-24 21:33 | 29.84034 | -97.01267 | 27731 ft | 390 kts | 275° |
| 2026-04-24 21:33 | 29.84252 | -97.04377 | 27736 ft | 390 kts | 275° |
| 2026-04-24 21:33 | 29.84470 | -97.07494 | 27734 ft | 390 kts | 275° |
| 2026-04-24 21:34 | 29.84683 | -97.10608 | 27699 ft | 391 kts | 275° |
| 2026-04-24 21:34 | 29.84897 | -97.13728 | 27439 ft | 391 kts | 275° |
| 2026-04-24 21:34 | 29.85115 | -97.16856 | 27184 ft | 392 kts | 275° |
| 2026-04-24 21:34 | 29.85336 | -97.19985 | 26936 ft | 393 kts | 275° |
| 2026-04-24 21:35 | 29.85559 | -97.23127 | 26620 ft | 392 kts | 275° |
| 2026-04-24 21:35 | 29.85777 | -97.26234 | 26001 ft | 387 kts | 275° |
| 2026-04-24 21:35 | 29.85992 | -97.29301 | 25389 ft | 382 kts | 275° |
| 2026-04-24 21:35 | 29.86201 | -97.32339 | 24784 ft | 378 kts | 275° |
| 2026-04-24 21:36 | 29.86405 | -97.35346 | 24179 ft | 375 kts | 275° |
| 2026-04-24 21:36 | 29.86608 | -97.38333 | 23586 ft | 372 kts | 275° |
| 2026-04-24 21:36 | 29.86809 | -97.41300 | 22913 ft | 371 kts | 275° |
| 2026-04-24 21:36 | 29.87008 | -97.44254 | 22220 ft | 370 kts | 275° |
| 2026-04-24 21:37 | 29.87209 | -97.47204 | 21574 ft | 368 kts | 275° |
| 2026-04-24 21:37 | 29.87409 | -97.50138 | 20944 ft | 367 kts | 275° |
| 2026-04-24 21:37 | 29.87608 | -97.53062 | 20331 ft | 366 kts | 275° |
| 2026-04-24 21:37 | 29.87804 | -97.55949 | 19747 ft | 366 kts | 274° |
| 2026-04-24 21:38 | 29.87999 | -97.58875 | 19164 ft | 366 kts | 274° |
| 2026-04-24 21:38 | 29.88191 | -97.61792 | 18603 ft | 365 kts | 274° |
| 2026-04-24 21:38 | 29.88383 | -97.64705 | 18028 ft | 364 kts | 274° |
| 2026-04-24 21:38 | 29.88573 | -97.67590 | 17605 ft | 357 kts | 274° |
| 2026-04-24 21:39 | 29.88757 | -97.70428 | 17057 ft | 354 kts | 274° |
| 2026-04-24 21:39 | 29.88942 | -97.73239 | 16496 ft | 350 kts | 274° |
| 2026-04-24 21:39 | 29.89126 | -97.76025 | 15930 ft | 348 kts | 274° |
| 2026-04-24 21:39 | 29.89305 | -97.78792 | 15340 ft | 345 kts | 273° |
| 2026-04-24 21:40 | 29.89483 | -97.81552 | 14746 ft | 344 kts | 273° |
| 2026-04-24 21:40 | 29.89612 | -97.84300 | 14152 ft | 343 kts | 268° |
| 2026-04-24 21:40 | 29.89346 | -97.87022 | 13545 ft | 342 kts | 257° |
| 2026-04-24 21:40 | 29.88627 | -97.89604 | 13158 ft | 334 kts | 249° |
| 2026-04-24 21:41 | 29.87797 | -97.92062 | 12905 ft | 324 kts | 249° |
| 2026-04-24 21:41 | 29.87002 | -97.94484 | 12647 ft | 322 kts | 250° |
| 2026-04-24 21:41 | 29.86217 | -97.96894 | 12400 ft | 321 kts | 250° |
| 2026-04-24 21:41 | 29.85437 | -97.99272 | 12006 ft | 321 kts | 249° |
| 2026-04-24 21:42 | 29.84643 | -98.01674 | 11471 ft | 321 kts | 249° |
| 2026-04-24 21:42 | 29.83845 | -98.04073 | 10925 ft | 321 kts | 249° |
| 2026-04-24 21:42 | 29.83043 | -98.06475 | 10400 ft | 321 kts | 249° |
| 2026-04-24 21:42 | 29.82254 | -98.08840 | 10248 ft | 310 kts | 249° |
| 2026-04-24 21:43 | 29.81494 | -98.11119 | 10129 ft | 299 kts | 249° |
| 2026-04-24 21:43 | 29.80761 | -98.13316 | 9982 ft | 290 kts | 249° |
| 2026-04-24 21:43 | 29.80044 | -98.15463 | 9846 ft | 285 kts | 248° |
| 2026-04-24 21:43 | 29.79334 | -98.17596 | 9554 ft | 284 kts | 249° |
| 2026-04-24 21:44 | 29.78631 | -98.19717 | 9232 ft | 283 kts | 249° |
| 2026-04-24 21:44 | 29.77930 | -98.21829 | 8906 ft | 281 kts | 249° |
| 2026-04-24 21:44 | 29.77230 | -98.23927 | 8591 ft | 281 kts | 249° |
| 2026-04-24 21:44 | 29.76530 | -98.26022 | 8276 ft | 280 kts | 250° |
| 2026-04-24 21:45 | 29.75833 | -98.28110 | 7966 ft | 280 kts | 250° |
| 2026-04-24 21:45 | 29.75130 | -98.30218 | 7479 ft | 285 kts | 250° |
| 2026-04-24 21:45 | 29.74414 | -98.32363 | 7077 ft | 288 kts | 251° |
| 2026-04-24 21:45 | 29.73696 | -98.34509 | 6744 ft | 286 kts | 251° |
| 2026-04-24 21:46 | 29.72979 | -98.36653 | 6410 ft | 286 kts | 251° |
| 2026-04-24 21:46 | 29.72284 | -98.38772 | 6258 ft | 280 kts | 252° |
| 2026-04-24 21:46 | 29.71616 | -98.40843 | 6123 ft | 273 kts | 252° |
| 2026-04-24 21:46 | 29.71030 | -98.42882 | 6007 ft | 263 kts | 262° |
| 2026-04-24 21:47 | 29.70965 | -98.44913 | 5990 ft | 247 kts | 275° |
| 2026-04-24 21:47 | 29.71036 | -98.46829 | 5987 ft | 232 kts | 275° |
| 2026-04-24 21:47 | 29.71094 | -98.48629 | 5991 ft | 218 kts | 275° |
| 2026-04-24 21:47 | 29.71142 | -98.50282 | 6018 ft | 200 kts | 275° |
| 2026-04-24 21:48 | 29.71187 | -98.51819 | 5979 ft | 183 kts | 274° |
| 2026-04-24 21:48 | 29.71229 | -98.53212 | 5986 ft | 174 kts | 276° |
| 2026-04-24 21:48 | 29.71275 | -98.54619 | 5986 ft | 177 kts | 275° |
| 2026-04-24 21:48 | 29.71387 | -98.56029 | 5985 ft | 176 kts | 286° |
| 2026-04-24 21:49 | 29.71782 | -98.57331 | 5793 ft | 171 kts | 300° |
| 2026-04-24 21:49 | 29.72443 | -98.58457 | 5482 ft | 170 kts | 313° |
| 2026-04-24 21:49 | 29.73174 | -98.59529 | 5220 ft | 172 kts | 298° |
| 2026-04-24 21:49 | 29.73470 | -98.60851 | 4972 ft | 173 kts | 270° |
| 2026-04-24 21:50 | 29.73206 | -98.62176 | 4712 ft | 168 kts | 244° |
| 2026-04-24 21:50 | 29.72468 | -98.63201 | 4221 ft | 167 kts | 217° |
| 2026-04-24 21:50 | 29.71424 | -98.63730 | 3686 ft | 165 kts | 191° |
| 2026-04-24 21:50 | 29.70291 | -98.63678 | 3241 ft | 164 kts | 166° |
| 2026-04-24 21:51 | 29.69247 | -98.63135 | 3188 ft | 167 kts | 155° |
| 2026-04-24 21:51 | 29.68202 | -98.62540 | 3187 ft | 167 kts | 155° |
| 2026-04-24 21:51 | 29.67162 | -98.61951 | 3189 ft | 168 kts | 156° |
| 2026-04-24 21:51 | 29.66118 | -98.61360 | 3186 ft | 168 kts | 155° |
| 2026-04-24 21:52 | 29.65072 | -98.60766 | 3192 ft | 168 kts | 155° |
| 2026-04-24 21:52 | 29.64016 | -98.60166 | 3193 ft | 169 kts | 155° |
| 2026-04-24 21:52 | 29.62977 | -98.59535 | 3193 ft | 170 kts | 148° |
| 2026-04-24 21:52 | 29.62109 | -98.58608 | 3031 ft | 171 kts | 136° |
| 2026-04-24 21:53 | 29.61314 | -98.57621 | 2888 ft | 170 kts | 135° |
| 2026-04-24 21:53 | 29.60530 | -98.56611 | 2707 ft | 168 kts | 135° |
| 2026-04-24 21:53 | 29.59758 | -98.55608 | 2435 ft | 165 kts | 134° |
| 2026-04-24 21:53 | 29.59035 | -98.54672 | 2128 ft | 150 kts | 135° |
| 2026-04-24 21:54 | 29.58364 | -98.53814 | 1916 ft | 142 kts | 134° |
| 2026-04-24 21:54 | 29.57733 | -98.52998 | 1784 ft | 137 kts | 134° |
| 2026-04-24 21:54 | 29.57096 | -98.52188 | 1659 ft | 137 kts | 135° |
| 2026-04-24 21:54 | 29.56492 | -98.51413 | 1481 ft | 136 kts | 134° |
| 2026-04-24 21:55 | 29.55854 | -98.50581 | 1301 ft | 135 kts | 132° |
| 2026-04-24 21:55 | 29.55230 | -98.49787 | 1109 ft | 134 kts | 132° |
| 2026-04-24 21:55 | 29.54612 | -98.48986 | 999 ft | 135 kts | 135° |
| 2026-04-24 21:55 | 29.53992 | -98.48187 | 802 ft | 127 kts | 132° |
| 2026-04-24 21:56 | 29.53531 | -98.47598 | 798 ft | 62 kts | 131° |
| 2026-04-24 21:56 | 29.53310 | -98.47313 | 798 ft | 22 kts | 131° |
| 2026-04-24 21:56 | 29.53203 | -98.47174 | 798 ft | 24 kts | 131° |
| 2026-04-24 21:56 | 29.53109 | -98.47063 | 798 ft | 14 kts | 151° |
| 2026-04-24 21:57 | 29.53019 | -98.47099 | 798 ft | 13 kts | 198° |
| 2026-04-24 21:57 | 29.52959 | -98.47048 | 798 ft | 12 kts | 134° |
| 2026-04-24 21:57 | 29.52913 | -98.47038 | 798 ft | 7 kts | 223° |
| 2026-04-24 21:57 | 29.52879 | -98.47048 | 798 ft | 1 kts | 185° |
| 2026-04-24 21:58 | 29.52862 | -98.47055 | 798 ft | 4 kts | 207° |
| 2026-04-24 21:58 | 29.52832 | -98.47076 | 798 ft | 6 kts | 218° |
| 2026-04-24 21:58 | 29.52800 | -98.47109 | 798 ft | 6 kts | 222° |
| 2026-04-24 21:58 | 29.52773 | -98.47136 | 798 ft | 5 kts | 219° |
| 2026-04-24 21:59 | 29.52782 | -98.47158 | 798 ft | 4 kts | 318° |
| 2026-04-24 21:59 | 29.52800 | -98.47173 | 798 ft | 3 kts | 330° |
| 2026-04-24 21:59 | 29.52810 | -98.47180 | 798 ft | 1 kts | 328° |
| 2026-04-24 21:59 | 29.52817 | -98.47185 | 798 ft | 2 kts | 329° |
| 2026-04-24 22:00 | 29.52820 | -98.47187 | 798 ft | 0 kts | 329° |